sensor_id;sensor_type;location;lat;lon;timestamp;P1;durP1;ratioP1;P2;durP2;ratioP2
12846;SDS011;6492;48.128;8.320;2022-07-29T03:30:48;7.27;;;6.57;;
12846;SDS011;6492;48.128;8.320;2022-07-29T03:44:23;6.77;;;6.13;;
12846;SDS011;6492;48.128;8.320;2022-07-29T03:53:16;5.90;;;5.33;;
12846;SDS011;6492;48.128;8.320;2022-07-29T04:36:26;5.90;;;4.53;;
12846;SDS011;6492;48.128;8.320;2022-07-29T04:40:28;5.87;;;5.23;;
12846;SDS011;6492;48.128;8.320;2022-07-29T04:44:30;5.60;;;5.10;;
12846;SDS011;6492;48.128;8.320;2022-07-29T04:48:32;4.47;;;4.07;;
12846;SDS011;6492;48.128;8.320;2022-07-29T04:52:36;5.33;;;4.83;;
12846;SDS011;6492;48.128;8.320;2022-07-29T04:56:38;5.43;;;4.50;;
12846;SDS011;6492;48.128;8.320;2022-07-29T05:00:47;7.00;;;4.43;;
12846;SDS011;6492;48.128;8.320;2022-07-29T05:04:49;5.13;;;4.60;;
12846;SDS011;6492;48.128;8.320;2022-07-29T05:17:28;5.13;;;4.60;;
12846;SDS011;6492;48.128;8.320;2022-07-29T06:24:17;5.38;;;4.75;;
12846;SDS011;6492;48.128;8.320;2022-07-29T06:28:19;4.32;;;3.60;;
12846;SDS011;6492;48.128;8.320;2022-07-29T06:32:22;6.85;;;3.88;;
12846;SDS011;6492;48.128;8.320;2022-07-29T06:36:24;4.67;;;3.70;;
12846;SDS011;6492;48.128;8.320;2022-07-29T06:40:27;4.47;;;3.45;;
12846;SDS011;6492;48.128;8.320;2022-07-29T06:45:03;4.72;;;4.32;;
12846;SDS011;6492;48.128;8.320;2022-07-29T06:53:51;4.47;;;3.20;;
12846;SDS011;6492;48.128;8.320;2022-07-29T06:57:55;3.33;;;3.03;;
12846;SDS011;6492;48.128;8.320;2022-07-29T07:01:57;3.70;;;3.40;;
12846;SDS011;6492;48.128;8.320;2022-07-29T07:05:59;4.13;;;3.60;;
12846;SDS011;6492;48.128;8.320;2022-07-29T07:10:01;3.78;;;3.40;;
12846;SDS011;6492;48.128;8.320;2022-07-29T07:14:04;3.92;;;3.08;;
12846;SDS011;6492;48.128;8.320;2022-07-29T07:18:06;4.45;;;2.95;;
12846;SDS011;6492;48.128;8.320;2022-07-29T07:22:08;5.10;;;3.28;;
12846;SDS011;6492;48.128;8.320;2022-07-29T07:26:10;6.88;;;3.40;;
12846;SDS011;6492;48.128;8.320;2022-07-29T07:30:13;4.45;;;2.90;;
12846;SDS011;6492;48.128;8.320;2022-07-29T07:34:15;3.63;;;2.92;;
12846;SDS011;6492;48.128;8.320;2022-07-29T07:38:17;4.60;;;2.90;;
12846;SDS011;6492;48.128;8.320;2022-07-29T07:42:22;3.67;;;2.80;;
12846;SDS011;6492;48.128;8.320;2022-07-29T07:46:25;3.38;;;3.00;;
12846;SDS011;6492;48.128;8.320;2022-07-29T07:50:27;3.40;;;3.00;;
12846;SDS011;6492;48.128;8.320;2022-07-29T07:54:30;3.33;;;2.67;;
12846;SDS011;6492;48.128;8.320;2022-07-29T07:58:33;2.95;;;2.75;;
12846;SDS011;6492;48.128;8.320;2022-07-29T08:02:37;3.03;;;2.72;;
12846;SDS011;6492;48.128;8.320;2022-07-29T08:06:40;4.35;;;2.90;;
12846;SDS011;6492;48.128;8.320;2022-07-29T08:10:43;3.97;;;3.10;;
12846;SDS011;6492;48.128;8.320;2022-07-29T08:15:00;4.55;;;2.80;;
12846;SDS011;6492;48.128;8.320;2022-07-29T08:19:03;4.40;;;3.67;;
12846;SDS011;6492;48.128;8.320;2022-07-29T08:23:06;4.97;;;3.90;;
12846;SDS011;6492;48.128;8.320;2022-07-29T08:27:15;4.63;;;3.33;;
12846;SDS011;6492;48.128;8.320;2022-07-29T08:31:17;4.57;;;3.17;;
12846;SDS011;6492;48.128;8.320;2022-07-29T08:35:21;3.65;;;3.35;;
12846;SDS011;6492;48.128;8.320;2022-07-29T08:39:24;3.33;;;3.03;;
12846;SDS011;6492;48.128;8.320;2022-07-29T08:43:26;3.53;;;3.10;;
12846;SDS011;6492;48.128;8.320;2022-07-29T08:47:29;4.07;;;3.00;;
12846;SDS011;6492;48.128;8.320;2022-07-29T08:51:33;5.47;;;3.50;;
12846;SDS011;6492;48.128;8.320;2022-07-29T08:55:41;3.15;;;2.95;;
12846;SDS011;6492;48.128;8.320;2022-07-29T08:59:44;3.60;;;3.30;;
12846;SDS011;6492;48.128;8.320;2022-07-29T09:03:50;3.35;;;3.05;;
12846;SDS011;6492;48.128;8.320;2022-07-29T09:07:58;3.95;;;3.40;;
12846;SDS011;6492;48.128;8.320;2022-07-29T09:12:00;4.75;;;3.13;;
12846;SDS011;6492;48.128;8.320;2022-07-29T09:16:04;3.72;;;3.40;;
12846;SDS011;6492;48.128;8.320;2022-07-29T09:20:08;5.30;;;3.70;;
12846;SDS011;6492;48.128;8.320;2022-07-29T09:24:22;7.05;;;3.58;;
12846;SDS011;6492;48.128;8.320;2022-07-29T09:28:25;5.60;;;4.25;;
12846;SDS011;6492;48.128;8.320;2022-07-29T09:32:27;4.60;;;4.07;;
12846;SDS011;6492;48.128;8.320;2022-07-29T09:36:33;6.90;;;3.97;;
12846;SDS011;6492;48.128;8.320;2022-07-29T09:40:41;6.85;;;4.40;;
12846;SDS011;6492;48.128;8.320;2022-07-29T09:44:57;4.97;;;4.18;;
12846;SDS011;6492;48.128;8.320;2022-07-29T09:53:29;4.63;;;4.05;;
12846;SDS011;6492;48.128;8.320;2022-07-29T09:57:34;4.68;;;3.95;;
12846;SDS011;6492;48.128;8.320;2022-07-29T10:01:36;4.03;;;3.65;;
12846;SDS011;6492;48.128;8.320;2022-07-29T10:05:38;4.38;;;3.97;;
12846;SDS011;6492;48.128;8.320;2022-07-29T10:09:49;5.22;;;4.18;;
12846;SDS011;6492;48.128;8.320;2022-07-29T10:13:54;4.22;;;3.90;;
12846;SDS011;6492;48.128;8.320;2022-07-29T10:17:56;5.68;;;3.83;;
12846;SDS011;6492;48.128;8.320;2022-07-29T10:21:59;4.22;;;3.92;;
12846;SDS011;6492;48.128;8.320;2022-07-29T10:26:12;4.18;;;3.78;;
12846;SDS011;6492;48.128;8.320;2022-07-29T10:30:16;4.15;;;3.78;;
12846;SDS011;6492;48.128;8.320;2022-07-29T10:34:21;4.50;;;4.10;;
12846;SDS011;6492;48.128;8.320;2022-07-29T10:38:41;5.28;;;4.57;;
12846;SDS011;6492;48.128;8.320;2022-07-29T10:42:50;4.80;;;4.18;;
12846;SDS011;6492;48.128;8.320;2022-07-29T10:51:36;4.35;;;4.00;;
12846;SDS011;6492;48.128;8.320;2022-07-29T10:55:58;4.82;;;4.43;;
12846;SDS011;6492;48.128;8.320;2022-07-29T11:09:15;5.72;;;4.28;;
12846;SDS011;6492;48.128;8.320;2022-07-29T11:18:06;5.88;;;4.45;;
12846;SDS011;6492;48.128;8.320;2022-07-29T11:22:10;6.75;;;4.07;;
12846;SDS011;6492;48.128;8.320;2022-07-29T11:26:13;4.88;;;4.38;;
12846;SDS011;6492;48.128;8.320;2022-07-29T11:39:27;4.50;;;4.10;;
12846;SDS011;6492;48.128;8.320;2022-07-29T11:47:52;4.43;;;4.10;;
12846;SDS011;6492;48.128;8.320;2022-07-29T11:51:58;5.30;;;4.13;;
12846;SDS011;6492;48.128;8.320;2022-07-29T11:56:02;6.70;;;4.30;;
12846;SDS011;6492;48.128;8.320;2022-07-29T12:00:09;5.03;;;4.35;;
12846;SDS011;6492;48.128;8.320;2022-07-29T12:04:12;5.97;;;4.10;;
12846;SDS011;6492;48.128;8.320;2022-07-29T12:08:15;5.85;;;4.55;;
12846;SDS011;6492;48.128;8.320;2022-07-29T12:12:20;5.28;;;4.43;;
12846;SDS011;6492;48.128;8.320;2022-07-29T12:16:23;9.70;;;4.07;;
12846;SDS011;6492;48.128;8.320;2022-07-29T12:20:36;5.03;;;4.10;;
12846;SDS011;6492;48.128;8.320;2022-07-29T12:24:42;7.47;;;4.70;;
12846;SDS011;6492;48.128;8.320;2022-07-29T12:29:02;4.82;;;4.30;;
12846;SDS011;6492;48.128;8.320;2022-07-29T12:33:10;4.50;;;4.10;;
12846;SDS011;6492;48.128;8.320;2022-07-29T12:37:16;5.25;;;3.70;;
12846;SDS011;6492;48.128;8.320;2022-07-29T12:41:18;4.82;;;4.40;;
12846;SDS011;6492;48.128;8.320;2022-07-29T12:45:29;4.43;;;3.95;;
12846;SDS011;6492;48.128;8.320;2022-07-29T12:49:31;5.40;;;4.20;;
12846;SDS011;6492;48.128;8.320;2022-07-29T12:53:33;3.95;;;3.53;;
12846;SDS011;6492;48.128;8.320;2022-07-29T12:57:44;5.15;;;4.03;;
12846;SDS011;6492;48.128;8.320;2022-07-29T13:01:48;8.25;;;4.72;;
12846;SDS011;6492;48.128;8.320;2022-07-29T13:05:51;4.13;;;3.83;;
12846;SDS011;6492;48.128;8.320;2022-07-29T13:09:53;5.18;;;3.92;;
12846;SDS011;6492;48.128;8.320;2022-07-29T13:13:55;5.05;;;3.45;;
12846;SDS011;6492;48.128;8.320;2022-07-29T13:17:58;4.97;;;3.90;;
12846;SDS011;6492;48.128;8.320;2022-07-29T13:22:00;4.03;;;3.53;;
12846;SDS011;6492;48.128;8.320;2022-07-29T13:26:04;5.47;;;3.90;;
12846;SDS011;6492;48.128;8.320;2022-07-29T13:30:08;6.32;;;4.00;;
12846;SDS011;6492;48.128;8.320;2022-07-29T13:34:12;4.00;;;3.22;;
12846;SDS011;6492;48.128;8.320;2022-07-29T13:38:14;4.13;;;3.80;;
12846;SDS011;6492;48.128;8.320;2022-07-29T13:42:15;4.30;;;3.50;;
12846;SDS011;6492;48.128;8.320;2022-07-29T13:46:17;4.65;;;4.00;;
12846;SDS011;6492;48.128;8.320;2022-07-29T13:50:21;4.85;;;3.60;;
12846;SDS011;6492;48.128;8.320;2022-07-29T13:54:23;3.63;;;3.20;;
12846;SDS011;6492;48.128;8.320;2022-07-29T13:58:25;4.25;;;3.83;;
12846;SDS011;6492;48.128;8.320;2022-07-29T14:02:27;6.60;;;3.42;;
12846;SDS011;6492;48.128;8.320;2022-07-29T14:06:30;6.25;;;3.60;;
12846;SDS011;6492;48.128;8.320;2022-07-29T14:10:32;6.65;;;3.58;;
12846;SDS011;6492;48.128;8.320;2022-07-29T14:14:33;4.35;;;3.53;;
12846;SDS011;6492;48.128;8.320;2022-07-29T14:18:36;5.53;;;3.78;;
12846;SDS011;6492;48.128;8.320;2022-07-29T14:22:39;6.78;;;3.65;;
12846;SDS011;6492;48.128;8.320;2022-07-29T14:31:16;6.13;;;3.60;;
12846;SDS011;6492;48.128;8.320;2022-07-29T14:35:27;4.10;;;3.70;;
12846;SDS011;6492;48.128;8.320;2022-07-29T14:39:38;3.90;;;3.58;;
12846;SDS011;6492;48.128;8.320;2022-07-29T14:43:39;4.60;;;3.70;;
12846;SDS011;6492;48.128;8.320;2022-07-29T14:47:41;4.30;;;3.92;;
12846;SDS011;6492;48.128;8.320;2022-07-29T14:51:43;6.45;;;3.80;;
12846;SDS011;6492;48.128;8.320;2022-07-29T14:55:46;3.90;;;3.60;;
12846;SDS011;6492;48.128;8.320;2022-07-29T14:59:49;4.50;;;4.20;;
12846;SDS011;6492;48.128;8.320;2022-07-29T15:03:51;4.60;;;4.20;;
12846;SDS011;6492;48.128;8.320;2022-07-29T15:07:53;7.82;;;4.20;;
12846;SDS011;6492;48.128;8.320;2022-07-29T15:11:56;7.40;;;4.50;;
12846;SDS011;6492;48.128;8.320;2022-07-29T15:16:06;4.80;;;4.40;;
12846;SDS011;6492;48.128;8.320;2022-07-29T15:20:09;5.18;;;4.45;;
12846;SDS011;6492;48.128;8.320;2022-07-29T15:24:11;4.97;;;4.57;;
12846;SDS011;6492;48.128;8.320;2022-07-29T15:28:14;5.75;;;4.20;;
12846;SDS011;6492;48.128;8.320;2022-07-29T15:32:16;5.00;;;4.50;;
12846;SDS011;6492;48.128;8.320;2022-07-29T15:36:18;6.10;;;4.20;;
12846;SDS011;6492;48.128;8.320;2022-07-29T15:40:22;7.95;;;4.53;;
12846;SDS011;6492;48.128;8.320;2022-07-29T15:44:25;5.25;;;3.63;;
12846;SDS011;6492;48.128;8.320;2022-07-29T15:48:27;4.25;;;3.85;;
12846;SDS011;6492;48.128;8.320;2022-07-29T15:52:29;4.18;;;3.80;;
12846;SDS011;6492;48.128;8.320;2022-07-29T15:56:31;3.90;;;3.60;;
12846;SDS011;6492;48.128;8.320;2022-07-29T16:00:34;5.70;;;3.55;;
12846;SDS011;6492;48.128;8.320;2022-07-29T16:04:36;3.85;;;3.30;;
12846;SDS011;6492;48.128;8.320;2022-07-29T16:08:38;6.07;;;3.60;;
12846;SDS011;6492;48.128;8.320;2022-07-29T16:12:39;4.00;;;3.63;;
12846;SDS011;6492;48.128;8.320;2022-07-29T16:16:43;3.40;;;3.10;;
12846;SDS011;6492;48.128;8.320;2022-07-29T16:20:45;3.78;;;3.17;;
12846;SDS011;6492;48.128;8.320;2022-07-29T16:24:46;4.88;;;3.20;;
12846;SDS011;6492;48.128;8.320;2022-07-29T16:28:48;6.35;;;3.53;;
12846;SDS011;6492;48.128;8.320;2022-07-29T16:32:52;4.40;;;3.40;;
12846;SDS011;6492;48.128;8.320;2022-07-29T16:36:54;3.15;;;2.95;;
12846;SDS011;6492;48.128;8.320;2022-07-29T16:40:56;3.13;;;2.83;;
12846;SDS011;6492;48.128;8.320;2022-07-29T16:44:57;5.90;;;3.67;;
12846;SDS011;6492;48.128;8.320;2022-07-29T16:49:01;3.33;;;3.03;;
12846;SDS011;6492;48.128;8.320;2022-07-29T16:53:03;3.45;;;3.13;;
12846;SDS011;6492;48.128;8.320;2022-07-29T16:57:05;3.78;;;3.47;;
12846;SDS011;6492;48.128;8.320;2022-07-29T17:01:06;3.55;;;3.25;;
12846;SDS011;6492;48.128;8.320;2022-07-29T17:05:11;3.70;;;2.83;;
12846;SDS011;6492;48.128;8.320;2022-07-29T17:13:37;3.10;;;2.78;;
12846;SDS011;6492;48.128;8.320;2022-07-29T17:17:43;4.43;;;3.00;;
12846;SDS011;6492;48.128;8.320;2022-07-29T17:21:47;3.22;;;2.70;;
12846;SDS011;6492;48.128;8.320;2022-07-29T17:25:49;3.95;;;3.03;;
12846;SDS011;6492;48.128;8.320;2022-07-29T17:29:51;3.30;;;2.42;;
12846;SDS011;6492;48.128;8.320;2022-07-29T17:33:53;4.55;;;2.90;;
12846;SDS011;6492;48.128;8.320;2022-07-29T17:37:56;2.72;;;2.45;;
12846;SDS011;6492;48.128;8.320;2022-07-29T17:42:06;3.33;;;2.55;;
12846;SDS011;6492;48.128;8.320;2022-07-29T17:46:08;2.83;;;2.60;;
12846;SDS011;6492;48.128;8.320;2022-07-29T17:54:41;4.68;;;2.58;;
12846;SDS011;6492;48.128;8.320;2022-07-29T17:58:43;4.07;;;2.30;;
12846;SDS011;6492;48.128;8.320;2022-07-29T18:02:48;3.22;;;2.70;;
12846;SDS011;6492;48.128;8.320;2022-07-29T18:06:50;2.95;;;2.75;;
12846;SDS011;6492;48.128;8.320;2022-07-29T18:10:53;3.60;;;2.63;;
12846;SDS011;6492;48.128;8.320;2022-07-29T18:15:01;2.78;;;2.40;;
12846;SDS011;6492;48.128;8.320;2022-07-29T18:24:01;2.83;;;2.40;;
12846;SDS011;6492;48.128;8.320;2022-07-29T18:28:05;2.50;;;2.30;;
12846;SDS011;6492;48.128;8.320;2022-07-29T18:32:08;2.70;;;2.30;;
12846;SDS011;6492;48.128;8.320;2022-07-29T19:25:12;3.20;;;2.80;;
